sensor_id;sensor_type;location;lat;lon;timestamp;temperature;humidity
4433;DHT22;2229;48.708;9.706;2023-07-22T00:01:44;14.60;95.20
4433;DHT22;2229;48.708;9.706;2023-07-22T00:04:11;14.60;95.30
4433;DHT22;2229;48.708;9.706;2023-07-22T00:06:40;14.60;95.30
4433;DHT22;2229;48.708;9.706;2023-07-22T00:09:07;14.60;95.30
4433;DHT22;2229;48.708;9.706;2023-07-22T00:11:35;14.60;95.40
4433;DHT22;2229;48.708;9.706;2023-07-22T00:14:02;14.60;95.40
4433;DHT22;2229;48.708;9.706;2023-07-22T00:16:32;14.50;95.40
4433;DHT22;2229;48.708;9.706;2023-07-22T00:18:59;14.50;95.40
4433;DHT22;2229;48.708;9.706;2023-07-22T00:21:29;14.50;95.50
4433;DHT22;2229;48.708;9.706;2023-07-22T00:23:58;14.50;95.60
4433;DHT22;2229;48.708;9.706;2023-07-22T00:26:26;14.50;95.60
4433;DHT22;2229;48.708;9.706;2023-07-22T00:28:54;14.50;95.90
4433;DHT22;2229;48.708;9.706;2023-07-22T00:31:21;14.50;95.60
4433;DHT22;2229;48.708;9.706;2023-07-22T00:33:48;14.50;95.60
4433;DHT22;2229;48.708;9.706;2023-07-22T00:36:16;14.40;95.60
4433;DHT22;2229;48.708;9.706;2023-07-22T00:38:43;14.40;95.60
4433;DHT22;2229;48.708;9.706;2023-07-22T00:41:12;14.40;95.70
4433;DHT22;2229;48.708;9.706;2023-07-22T00:43:40;14.30;95.70
4433;DHT22;2229;48.708;9.706;2023-07-22T00:46:07;14.30;95.70
4433;DHT22;2229;48.708;9.706;2023-07-22T00:48:35;14.30;95.80
4433;DHT22;2229;48.708;9.706;2023-07-22T00:51:02;14.30;95.80
4433;DHT22;2229;48.708;9.706;2023-07-22T00:53:29;14.20;95.80
4433;DHT22;2229;48.708;9.706;2023-07-22T00:55:56;14.20;95.80
4433;DHT22;2229;48.708;9.706;2023-07-22T00:58:25;14.30;95.90
4433;DHT22;2229;48.708;9.706;2023-07-22T01:00:52;14.20;95.90
4433;DHT22;2229;48.708;9.706;2023-07-22T01:03:20;14.20;96.30
4433;DHT22;2229;48.708;9.706;2023-07-22T01:05:49;14.20;96.10
4433;DHT22;2229;48.708;9.706;2023-07-22T01:08:18;14.30;96.20
4433;DHT22;2229;48.708;9.706;2023-07-22T01:10:45;14.30;96.20
4433;DHT22;2229;48.708;9.706;2023-07-22T01:13:13;14.30;96.20
4433;DHT22;2229;48.708;9.706;2023-07-22T01:15:42;14.30;96.30
4433;DHT22;2229;48.708;9.706;2023-07-22T01:18:10;14.30;96.40
4433;DHT22;2229;48.708;9.706;2023-07-22T01:20:38;14.30;96.40
4433;DHT22;2229;48.708;9.706;2023-07-22T01:23:07;14.30;96.30
4433;DHT22;2229;48.708;9.706;2023-07-22T01:25:34;14.30;96.30
4433;DHT22;2229;48.708;9.706;2023-07-22T01:28:02;14.30;96.30
4433;DHT22;2229;48.708;9.706;2023-07-22T01:30:29;14.20;96.10
4433;DHT22;2229;48.708;9.706;2023-07-22T01:32:56;14.20;96.00
4433;DHT22;2229;48.708;9.706;2023-07-22T01:35:24;14.10;95.90
4433;DHT22;2229;48.708;9.706;2023-07-22T01:37:52;14.10;95.80
4433;DHT22;2229;48.708;9.706;2023-07-22T01:40:20;14.00;96.10
4433;DHT22;2229;48.708;9.706;2023-07-22T01:42:49;14.00;95.80
4433;DHT22;2229;48.708;9.706;2023-07-22T01:45:17;13.90;95.80
4433;DHT22;2229;48.708;9.706;2023-07-22T01:47:44;13.90;95.80
4433;DHT22;2229;48.708;9.706;2023-07-22T01:50:11;13.80;95.80
4433;DHT22;2229;48.708;9.706;2023-07-22T01:52:39;13.80;95.80
4433;DHT22;2229;48.708;9.706;2023-07-22T01:55:07;13.80;95.90
4433;DHT22;2229;48.708;9.706;2023-07-22T01:57:38;13.80;95.90
4433;DHT22;2229;48.708;9.706;2023-07-22T02:00:07;13.70;95.90
4433;DHT22;2229;48.708;9.706;2023-07-22T02:02:39;13.70;95.90
4433;DHT22;2229;48.708;9.706;2023-07-22T02:05:09;13.70;95.90
4433;DHT22;2229;48.708;9.706;2023-07-22T02:07:37;13.70;96.00
4433;DHT22;2229;48.708;9.706;2023-07-22T02:10:06;13.70;96.00
4433;DHT22;2229;48.708;9.706;2023-07-22T02:12:33;13.70;96.10
4433;DHT22;2229;48.708;9.706;2023-07-22T02:15:03;13.60;96.00
4433;DHT22;2229;48.708;9.706;2023-07-22T02:17:31;13.60;96.00
4433;DHT22;2229;48.708;9.706;2023-07-22T02:19:59;13.60;96.00
4433;DHT22;2229;48.708;9.706;2023-07-22T02:22:27;13.50;96.00
4433;DHT22;2229;48.708;9.706;2023-07-22T02:24:54;13.50;96.00
4433;DHT22;2229;48.708;9.706;2023-07-22T02:27:21;13.50;96.00
4433;DHT22;2229;48.708;9.706;2023-07-22T02:29:48;13.50;96.00
4433;DHT22;2229;48.708;9.706;2023-07-22T02:32:19;13.40;96.20
4433;DHT22;2229;48.708;9.706;2023-07-22T02:34:46;13.40;96.00
4433;DHT22;2229;48.708;9.706;2023-07-22T02:37:14;13.40;96.00
4433;DHT22;2229;48.708;9.706;2023-07-22T02:39:41;13.40;96.10
4433;DHT22;2229;48.708;9.706;2023-07-22T02:42:08;13.30;96.10
4433;DHT22;2229;48.708;9.706;2023-07-22T02:44:36;13.30;96.10
4433;DHT22;2229;48.708;9.706;2023-07-22T02:47:03;13.30;96.10
4433;DHT22;2229;48.708;9.706;2023-07-22T02:49:32;13.30;96.20
4433;DHT22;2229;48.708;9.706;2023-07-22T02:52:00;13.30;96.20
4433;DHT22;2229;48.708;9.706;2023-07-22T02:54:27;13.30;96.30
4433;DHT22;2229;48.708;9.706;2023-07-22T02:56:54;13.30;96.60
4433;DHT22;2229;48.708;9.706;2023-07-22T02:59:21;13.30;96.40
4433;DHT22;2229;48.708;9.706;2023-07-22T03:01:50;13.30;96.40
4433;DHT22;2229;48.708;9.706;2023-07-22T03:04:17;13.30;96.40
4433;DHT22;2229;48.708;9.706;2023-07-22T03:06:46;13.30;96.40
4433;DHT22;2229;48.708;9.706;2023-07-22T03:09:14;13.30;96.40
4433;DHT22;2229;48.708;9.706;2023-07-22T03:11:41;13.20;96.40
4433;DHT22;2229;48.708;9.706;2023-07-22T03:14:08;13.20;96.40
4433;DHT22;2229;48.708;9.706;2023-07-22T03:16:36;13.20;96.40
4433;DHT22;2229;48.708;9.706;2023-07-22T03:19:03;13.20;96.30
4433;DHT22;2229;48.708;9.706;2023-07-22T03:21:30;13.20;96.30
4433;DHT22;2229;48.708;9.706;2023-07-22T03:23:59;13.10;96.30
4433;DHT22;2229;48.708;9.706;2023-07-22T03:26:26;13.10;96.30
4433;DHT22;2229;48.708;9.706;2023-07-22T03:28:54;13.10;96.30
4433;DHT22;2229;48.708;9.706;2023-07-22T03:31:21;13.00;96.30
4433;DHT22;2229;48.708;9.706;2023-07-22T03:33:48;13.00;96.30
4433;DHT22;2229;48.708;9.706;2023-07-22T03:36:16;13.00;96.40
4433;DHT22;2229;48.708;9.706;2023-07-22T03:38:43;13.00;96.50
4433;DHT22;2229;48.708;9.706;2023-07-22T03:41:12;13.00;96.50
4433;DHT22;2229;48.708;9.706;2023-07-22T03:43:39;13.00;96.60
4433;DHT22;2229;48.708;9.706;2023-07-22T03:46:07;13.00;96.60
4433;DHT22;2229;48.708;9.706;2023-07-22T03:48:34;13.00;96.60
4433;DHT22;2229;48.708;9.706;2023-07-22T03:51:01;13.00;96.70
4433;DHT22;2229;48.708;9.706;2023-07-22T03:53:28;13.00;96.70
4433;DHT22;2229;48.708;9.706;2023-07-22T03:55:55;12.90;96.70
4433;DHT22;2229;48.708;9.706;2023-07-22T03:58:24;12.90;96.70
4433;DHT22;2229;48.708;9.706;2023-07-22T04:00:51;12.90;96.80
4433;DHT22;2229;48.708;9.706;2023-07-22T04:03:19;12.90;96.80
4433;DHT22;2229;48.708;9.706;2023-07-22T04:05:53;12.90;96.90
4433;DHT22;2229;48.708;9.706;2023-07-22T04:08:20;12.90;96.90
4433;DHT22;2229;48.708;9.706;2023-07-22T04:10:51;12.90;97.00
4433;DHT22;2229;48.708;9.706;2023-07-22T04:13:19;12.90;97.10
4433;DHT22;2229;48.708;9.706;2023-07-22T04:15:48;13.00;97.20
4433;DHT22;2229;48.708;9.706;2023-07-22T04:18:16;13.10;97.30
4433;DHT22;2229;48.708;9.706;2023-07-22T04:20:44;13.10;97.40
4433;DHT22;2229;48.708;9.706;2023-07-22T04:23:12;13.10;97.40
4433;DHT22;2229;48.708;9.706;2023-07-22T04:25:39;13.10;97.50
4433;DHT22;2229;48.708;9.706;2023-07-22T04:28:07;13.20;97.60
4433;DHT22;2229;48.708;9.706;2023-07-22T04:30:35;13.30;97.70
4433;DHT22;2229;48.708;9.706;2023-07-22T04:33:04;13.40;97.80
4433;DHT22;2229;48.708;9.706;2023-07-22T04:35:32;13.40;97.80
4433;DHT22;2229;48.708;9.706;2023-07-22T04:38:00;13.50;97.90
4433;DHT22;2229;48.708;9.706;2023-07-22T04:40:27;13.50;97.80
4433;DHT22;2229;48.708;9.706;2023-07-22T04:42:54;13.60;97.90
4433;DHT22;2229;48.708;9.706;2023-07-22T04:45:23;13.70;98.00
4433;DHT22;2229;48.708;9.706;2023-07-22T04:47:50;13.70;97.90
4433;DHT22;2229;48.708;9.706;2023-07-22T04:50:19;13.70;97.90
4433;DHT22;2229;48.708;9.706;2023-07-22T04:52:47;13.90;98.00
4433;DHT22;2229;48.708;9.706;2023-07-22T04:55:14;14.00;97.90
4433;DHT22;2229;48.708;9.706;2023-07-22T04:57:42;14.10;97.90
4433;DHT22;2229;48.708;9.706;2023-07-22T05:00:12;14.10;97.80
4433;DHT22;2229;48.708;9.706;2023-07-22T05:02:42;14.20;97.80
4433;DHT22;2229;48.708;9.706;2023-07-22T05:05:10;14.30;97.70
4433;DHT22;2229;48.708;9.706;2023-07-22T05:07:39;14.30;98.00
4433;DHT22;2229;48.708;9.706;2023-07-22T05:10:07;14.30;97.70
4433;DHT22;2229;48.708;9.706;2023-07-22T05:12:38;14.30;97.70
4433;DHT22;2229;48.708;9.706;2023-07-22T05:15:06;14.30;97.80
4433;DHT22;2229;48.708;9.706;2023-07-22T05:17:34;14.40;97.80
4433;DHT22;2229;48.708;9.706;2023-07-22T05:20:01;14.40;97.90
4433;DHT22;2229;48.708;9.706;2023-07-22T05:22:29;14.50;97.90
4433;DHT22;2229;48.708;9.706;2023-07-22T05:24:59;14.60;98.00
4433;DHT22;2229;48.708;9.706;2023-07-22T05:27:29;14.70;98.00
4433;DHT22;2229;48.708;9.706;2023-07-22T05:29:56;14.80;97.90
4433;DHT22;2229;48.708;9.706;2023-07-22T05:32:25;14.80;97.90
4433;DHT22;2229;48.708;9.706;2023-07-22T05:34:52;14.90;97.80
4433;DHT22;2229;48.708;9.706;2023-07-22T05:37:19;15.00;97.70
4433;DHT22;2229;48.708;9.706;2023-07-22T05:39:46;15.10;97.60
4433;DHT22;2229;48.708;9.706;2023-07-22T05:42:15;15.20;97.50
4433;DHT22;2229;48.708;9.706;2023-07-22T05:44:43;15.20;97.40
4433;DHT22;2229;48.708;9.706;2023-07-22T05:47:10;15.30;97.20
4433;DHT22;2229;48.708;9.706;2023-07-22T05:49:37;15.30;97.00
4433;DHT22;2229;48.708;9.706;2023-07-22T05:52:05;15.40;97.00
4433;DHT22;2229;48.708;9.706;2023-07-22T05:54:32;15.50;96.90
4433;DHT22;2229;48.708;9.706;2023-07-22T05:56:59;15.50;96.80
4433;DHT22;2229;48.708;9.706;2023-07-22T05:59:28;15.60;96.80
4433;DHT22;2229;48.708;9.706;2023-07-22T06:01:55;15.70;96.70
4433;DHT22;2229;48.708;9.706;2023-07-22T06:04:22;15.70;96.60
4433;DHT22;2229;48.708;9.706;2023-07-22T06:06:49;15.80;96.60
4433;DHT22;2229;48.708;9.706;2023-07-22T06:09:17;15.90;96.60
4433;DHT22;2229;48.708;9.706;2023-07-22T06:11:44;16.00;96.40
4433;DHT22;2229;48.708;9.706;2023-07-22T06:14:12;16.00;96.10
4433;DHT22;2229;48.708;9.706;2023-07-22T06:16:41;16.10;96.00
4433;DHT22;2229;48.708;9.706;2023-07-22T06:19:08;16.20;96.10
4433;DHT22;2229;48.708;9.706;2023-07-22T06:21:35;16.30;96.00
4433;DHT22;2229;48.708;9.706;2023-07-22T06:24:02;16.40;96.00
4433;DHT22;2229;48.708;9.706;2023-07-22T06:26:30;16.50;96.10
4433;DHT22;2229;48.708;9.706;2023-07-22T06:28:57;16.60;96.20
4433;DHT22;2229;48.708;9.706;2023-07-22T06:31:25;16.70;96.10
4433;DHT22;2229;48.708;9.706;2023-07-22T06:33:57;16.80;96.00
4433;DHT22;2229;48.708;9.706;2023-07-22T06:36:26;16.90;95.60
4433;DHT22;2229;48.708;9.706;2023-07-22T06:38:54;17.00;95.30
4433;DHT22;2229;48.708;9.706;2023-07-22T06:41:22;17.10;95.10
4433;DHT22;2229;48.708;9.706;2023-07-22T06:43:50;17.20;95.10
4433;DHT22;2229;48.708;9.706;2023-07-22T06:46:18;17.30;95.10
4433;DHT22;2229;48.708;9.706;2023-07-22T06:48:47;17.50;95.10
4433;DHT22;2229;48.708;9.706;2023-07-22T06:51:16;17.60;95.00
4433;DHT22;2229;48.708;9.706;2023-07-22T06:53:43;17.70;94.70
4433;DHT22;2229;48.708;9.706;2023-07-22T06:56:10;17.80;94.50
4433;DHT22;2229;48.708;9.706;2023-07-22T06:58:37;17.90;94.40
4433;DHT22;2229;48.708;9.706;2023-07-22T07:01:05;18.00;94.40
4433;DHT22;2229;48.708;9.706;2023-07-22T07:03:32;18.20;94.30
4433;DHT22;2229;48.708;9.706;2023-07-22T07:05:59;18.30;94.10
4433;DHT22;2229;48.708;9.706;2023-07-22T07:08:28;18.40;94.00
4433;DHT22;2229;48.708;9.706;2023-07-22T07:10:56;18.50;93.90
4433;DHT22;2229;48.708;9.706;2023-07-22T07:13:23;18.60;93.80
4433;DHT22;2229;48.708;9.706;2023-07-22T07:15:50;18.70;93.50
4433;DHT22;2229;48.708;9.706;2023-07-22T07:18:18;18.80;93.40
4433;DHT22;2229;48.708;9.706;2023-07-22T07:20:47;18.90;93.10
4433;DHT22;2229;48.708;9.706;2023-07-22T07:23:17;19.10;92.80
4433;DHT22;2229;48.708;9.706;2023-07-22T07:25:47;19.10;92.50
4433;DHT22;2229;48.708;9.706;2023-07-22T07:28:14;19.30;92.40
4433;DHT22;2229;48.708;9.706;2023-07-22T07:30:44;19.40;92.10
4433;DHT22;2229;48.708;9.706;2023-07-22T07:33:12;19.50;91.80
4433;DHT22;2229;48.708;9.706;2023-07-22T07:35:40;19.60;91.70
4433;DHT22;2229;48.708;9.706;2023-07-22T07:38:07;19.70;91.60
4433;DHT22;2229;48.708;9.706;2023-07-22T07:40:35;19.90;91.20
4433;DHT22;2229;48.708;9.706;2023-07-22T07:43:04;20.00;90.90
4433;DHT22;2229;48.708;9.706;2023-07-22T07:45:32;20.10;90.60
4433;DHT22;2229;48.708;9.706;2023-07-22T07:47:59;20.20;90.40
4433;DHT22;2229;48.708;9.706;2023-07-22T07:50:27;20.40;90.10
4433;DHT22;2229;48.708;9.706;2023-07-22T07:52:54;20.40;89.50
4433;DHT22;2229;48.708;9.706;2023-07-22T07:55:22;20.60;89.00
4433;DHT22;2229;48.708;9.706;2023-07-22T07:57:52;20.70;88.50
4433;DHT22;2229;48.708;9.706;2023-07-22T08:00:21;20.80;88.00
4433;DHT22;2229;48.708;9.706;2023-07-22T08:02:48;20.90;88.20
4433;DHT22;2229;48.708;9.706;2023-07-22T08:05:16;21.00;86.70
4433;DHT22;2229;48.708;9.706;2023-07-22T08:07:46;21.10;86.50
4433;DHT22;2229;48.708;9.706;2023-07-22T08:10:14;21.20;86.30
4433;DHT22;2229;48.708;9.706;2023-07-22T08:12:41;21.40;86.10
4433;DHT22;2229;48.708;9.706;2023-07-22T08:15:09;21.50;84.80
4433;DHT22;2229;48.708;9.706;2023-07-22T08:17:39;21.60;83.80
4433;DHT22;2229;48.708;9.706;2023-07-22T08:20:08;21.70;83.00
4433;DHT22;2229;48.708;9.706;2023-07-22T08:22:36;21.80;82.70
4433;DHT22;2229;48.708;9.706;2023-07-22T08:25:05;21.90;82.70
4433;DHT22;2229;48.708;9.706;2023-07-22T08:27:33;22.00;81.90
4433;DHT22;2229;48.708;9.706;2023-07-22T08:30:00;22.10;81.50
4433;DHT22;2229;48.708;9.706;2023-07-22T08:32:28;22.30;81.30
4433;DHT22;2229;48.708;9.706;2023-07-22T08:34:57;22.40;80.90
4433;DHT22;2229;48.708;9.706;2023-07-22T08:37:25;22.50;80.40
4433;DHT22;2229;48.708;9.706;2023-07-22T08:39:52;22.60;78.60
4433;DHT22;2229;48.708;9.706;2023-07-22T08:42:20;22.70;77.80
4433;DHT22;2229;48.708;9.706;2023-07-22T08:44:49;22.80;77.50
4433;DHT22;2229;48.708;9.706;2023-07-22T08:47:22;22.90;76.40
4433;DHT22;2229;48.708;9.706;2023-07-22T08:49:52;23.00;76.00
4433;DHT22;2229;48.708;9.706;2023-07-22T08:52:24;23.10;74.30
4433;DHT22;2229;48.708;9.706;2023-07-22T08:54:51;23.20;73.90
4433;DHT22;2229;48.708;9.706;2023-07-22T08:57:20;23.30;73.30
4433;DHT22;2229;48.708;9.706;2023-07-22T08:59:49;23.40;71.90
4433;DHT22;2229;48.708;9.706;2023-07-22T09:02:16;23.50;71.60
4433;DHT22;2229;48.708;9.706;2023-07-22T09:04:44;23.60;71.10
4433;DHT22;2229;48.708;9.706;2023-07-22T09:07:12;23.80;70.70
4433;DHT22;2229;48.708;9.706;2023-07-22T09:09:43;23.90;68.00
4433;DHT22;2229;48.708;9.706;2023-07-22T09:12:11;24.00;66.10
4433;DHT22;2229;48.708;9.706;2023-07-22T09:14:40;24.10;66.30
4433;DHT22;2229;48.708;9.706;2023-07-22T09:17:08;24.10;64.60
4433;DHT22;2229;48.708;9.706;2023-07-22T09:19:35;24.10;64.50
4433;DHT22;2229;48.708;9.706;2023-07-22T09:22:03;24.10;64.90
4433;DHT22;2229;48.708;9.706;2023-07-22T09:24:31;24.10;65.50
4433;DHT22;2229;48.708;9.706;2023-07-22T09:27:00;24.30;65.40
4433;DHT22;2229;48.708;9.706;2023-07-22T09:29:33;24.40;64.70
4433;DHT22;2229;48.708;9.706;2023-07-22T09:32:01;24.40;64.20
4433;DHT22;2229;48.708;9.706;2023-07-22T09:34:29;24.50;63.30
4433;DHT22;2229;48.708;9.706;2023-07-22T09:36:58;24.50;63.30
4433;DHT22;2229;48.708;9.706;2023-07-22T09:39:27;24.50;62.60
4433;DHT22;2229;48.708;9.706;2023-07-22T09:41:54;24.60;61.50
4433;DHT22;2229;48.708;9.706;2023-07-22T09:44:22;24.70;60.50
4433;DHT22;2229;48.708;9.706;2023-07-22T09:46:50;24.80;60.50
4433;DHT22;2229;48.708;9.706;2023-07-22T09:49:18;24.90;60.10
4433;DHT22;2229;48.708;9.706;2023-07-22T09:51:47;25.00;59.40
4433;DHT22;2229;48.708;9.706;2023-07-22T09:54:14;25.20;59.40
4433;DHT22;2229;48.708;9.706;2023-07-22T09:56:46;25.40;58.60
4433;DHT22;2229;48.708;9.706;2023-07-22T09:59:14;25.60;58.30
4433;DHT22;2229;48.708;9.706;2023-07-22T10:01:46;25.80;57.70
4433;DHT22;2229;48.708;9.706;2023-07-22T10:04:16;25.90;56.30
4433;DHT22;2229;48.708;9.706;2023-07-22T10:06:45;26.10;55.20
4433;DHT22;2229;48.708;9.706;2023-07-22T10:09:15;26.30;55.00
4433;DHT22;2229;48.708;9.706;2023-07-22T10:11:43;26.50;54.00
4433;DHT22;2229;48.708;9.706;2023-07-22T10:14:11;26.60;53.70
4433;DHT22;2229;48.708;9.706;2023-07-22T10:16:40;26.60;53.20
4433;DHT22;2229;48.708;9.706;2023-07-22T10:19:12;26.70;53.10
4433;DHT22;2229;48.708;9.706;2023-07-22T10:21:40;26.90;52.70
4433;DHT22;2229;48.708;9.706;2023-07-22T10:24:09;26.90;51.80
4433;DHT22;2229;48.708;9.706;2023-07-22T10:26:37;26.90;52.30
4433;DHT22;2229;48.708;9.706;2023-07-22T10:29:06;27.00;52.30
4433;DHT22;2229;48.708;9.706;2023-07-22T10:31:34;27.00;52.10
4433;DHT22;2229;48.708;9.706;2023-07-22T10:34:01;27.00;51.90
4433;DHT22;2229;48.708;9.706;2023-07-22T10:36:30;27.00;51.20
4433;DHT22;2229;48.708;9.706;2023-07-22T10:38:59;27.00;51.40
4433;DHT22;2229;48.708;9.706;2023-07-22T10:41:26;27.00;51.30
4433;DHT22;2229;48.708;9.706;2023-07-22T10:43:55;27.20;50.90
4433;DHT22;2229;48.708;9.706;2023-07-22T10:46:32;27.20;51.50
4433;DHT22;2229;48.708;9.706;2023-07-22T10:49:09;27.10;50.50
4433;DHT22;2229;48.708;9.706;2023-07-22T10:51:38;27.00;50.80
4433;DHT22;2229;48.708;9.706;2023-07-22T10:54:11;26.90;50.90
4433;DHT22;2229;48.708;9.706;2023-07-22T10:56:40;26.90;51.30
4433;DHT22;2229;48.708;9.706;2023-07-22T10:59:10;26.90;50.80
4433;DHT22;2229;48.708;9.706;2023-07-22T11:01:38;26.80;50.80
4433;DHT22;2229;48.708;9.706;2023-07-22T11:04:22;26.90;51.00
4433;DHT22;2229;48.708;9.706;2023-07-22T11:06:58;27.00;51.70
4433;DHT22;2229;48.708;9.706;2023-07-22T11:09:37;27.00;50.80
4433;DHT22;2229;48.708;9.706;2023-07-22T11:12:06;27.20;51.50
4433;DHT22;2229;48.708;9.706;2023-07-22T11:14:37;27.30;51.70
4433;DHT22;2229;48.708;9.706;2023-07-22T11:17:07;27.50;51.30
4433;DHT22;2229;48.708;9.706;2023-07-22T11:19:35;27.50;51.50
4433;DHT22;2229;48.708;9.706;2023-07-22T11:22:05;27.60;51.70
4433;DHT22;2229;48.708;9.706;2023-07-22T11:24:35;27.50;51.40
4433;DHT22;2229;48.708;9.706;2023-07-22T11:27:04;27.50;51.30
4433;DHT22;2229;48.708;9.706;2023-07-22T11:29:32;27.40;52.00
4433;DHT22;2229;48.708;9.706;2023-07-22T11:31:59;27.30;52.40
4433;DHT22;2229;48.708;9.706;2023-07-22T11:34:27;27.20;52.10
4433;DHT22;2229;48.708;9.706;2023-07-22T11:36:56;27.10;52.30
4433;DHT22;2229;48.708;9.706;2023-07-22T11:39:26;26.90;52.60
4433;DHT22;2229;48.708;9.706;2023-07-22T11:42:00;26.90;53.10
4433;DHT22;2229;48.708;9.706;2023-07-22T11:44:29;27.20;53.20
4433;DHT22;2229;48.708;9.706;2023-07-22T11:46:59;27.40;53.00
4433;DHT22;2229;48.708;9.706;2023-07-22T11:49:28;27.40;52.60
4433;DHT22;2229;48.708;9.706;2023-07-22T11:51:57;27.30;52.50
4433;DHT22;2229;48.708;9.706;2023-07-22T11:54:27;27.10;52.70
4433;DHT22;2229;48.708;9.706;2023-07-22T11:56:56;27.00;53.00
4433;DHT22;2229;48.708;9.706;2023-07-22T11:59:34;26.90;53.40
4433;DHT22;2229;48.708;9.706;2023-07-22T12:02:01;26.60;53.30
4433;DHT22;2229;48.708;9.706;2023-07-22T12:04:31;26.50;53.50
4433;DHT22;2229;48.708;9.706;2023-07-22T12:06:58;26.40;54.00
4433;DHT22;2229;48.708;9.706;2023-07-22T12:09:28;26.40;53.90
4433;DHT22;2229;48.708;9.706;2023-07-22T12:11:56;26.30;54.20
4433;DHT22;2229;48.708;9.706;2023-07-22T12:14:24;26.30;53.50
4433;DHT22;2229;48.708;9.706;2023-07-22T12:16:55;26.30;53.10
4433;DHT22;2229;48.708;9.706;2023-07-22T12:19:24;26.20;53.10
4433;DHT22;2229;48.708;9.706;2023-07-22T12:21:51;26.20;53.70
4433;DHT22;2229;48.708;9.706;2023-07-22T12:24:18;26.10;53.40
4433;DHT22;2229;48.708;9.706;2023-07-22T12:26:47;26.10;53.40
4433;DHT22;2229;48.708;9.706;2023-07-22T12:29:14;26.00;53.30
4433;DHT22;2229;48.708;9.706;2023-07-22T12:31:42;26.00;53.40
4433;DHT22;2229;48.708;9.706;2023-07-22T12:34:11;26.10;53.90
4433;DHT22;2229;48.708;9.706;2023-07-22T12:36:39;26.20;53.40
4433;DHT22;2229;48.708;9.706;2023-07-22T12:39:07;26.30;53.10
4433;DHT22;2229;48.708;9.706;2023-07-22T12:41:34;26.30;52.90
4433;DHT22;2229;48.708;9.706;2023-07-22T12:44:03;26.20;53.10
4433;DHT22;2229;48.708;9.706;2023-07-22T12:46:30;26.10;53.30
4433;DHT22;2229;48.708;9.706;2023-07-22T12:48:58;26.10;53.50
4433;DHT22;2229;48.708;9.706;2023-07-22T12:51:25;26.10;53.80
4433;DHT22;2229;48.708;9.706;2023-07-22T12:53:53;26.10;54.00
4433;DHT22;2229;48.708;9.706;2023-07-22T12:56:20;26.10;54.10
4433;DHT22;2229;48.708;9.706;2023-07-22T12:58:47;26.10;54.00
4433;DHT22;2229;48.708;9.706;2023-07-22T13:01:16;26.20;53.90
4433;DHT22;2229;48.708;9.706;2023-07-22T13:03:44;26.30;53.60
4433;DHT22;2229;48.708;9.706;2023-07-22T13:06:11;26.40;53.90
4433;DHT22;2229;48.708;9.706;2023-07-22T13:08:39;26.50;54.10
4433;DHT22;2229;48.708;9.706;2023-07-22T13:11:06;26.70;53.90
4433;DHT22;2229;48.708;9.706;2023-07-22T13:13:33;27.00;54.00
4433;DHT22;2229;48.708;9.706;2023-07-22T13:16:00;27.20;53.50
4433;DHT22;2229;48.708;9.706;2023-07-22T13:18:29;27.40;52.90
4433;DHT22;2229;48.708;9.706;2023-07-22T13:20:56;27.40;52.80
4433;DHT22;2229;48.708;9.706;2023-07-22T13:23:23;27.40;52.40
4433;DHT22;2229;48.708;9.706;2023-07-22T13:25:51;27.20;52.50
4433;DHT22;2229;48.708;9.706;2023-07-22T13:28:19;27.10;52.40
4433;DHT22;2229;48.708;9.706;2023-07-22T13:30:46;26.90;52.60
4433;DHT22;2229;48.708;9.706;2023-07-22T13:33:14;26.90;52.80
4433;DHT22;2229;48.708;9.706;2023-07-22T13:35:43;26.90;53.30
4433;DHT22;2229;48.708;9.706;2023-07-22T13:38:10;26.80;52.70
4433;DHT22;2229;48.708;9.706;2023-07-22T13:40:37;26.70;52.80
4433;DHT22;2229;48.708;9.706;2023-07-22T13:43:05;26.60;52.80
4433;DHT22;2229;48.708;9.706;2023-07-22T13:45:32;26.50;53.20
4433;DHT22;2229;48.708;9.706;2023-07-22T13:48:00;26.40;53.40
4433;DHT22;2229;48.708;9.706;2023-07-22T13:50:27;26.30;53.80
4433;DHT22;2229;48.708;9.706;2023-07-22T13:52:56;26.20;53.90
4433;DHT22;2229;48.708;9.706;2023-07-22T13:55:24;26.20;54.00
4433;DHT22;2229;48.708;9.706;2023-07-22T13:57:51;26.30;54.00
4433;DHT22;2229;48.708;9.706;2023-07-22T14:00:19;26.30;54.10
4433;DHT22;2229;48.708;9.706;2023-07-22T14:02:46;26.30;53.80
4433;DHT22;2229;48.708;9.706;2023-07-22T14:05:13;26.30;54.10
4433;DHT22;2229;48.708;9.706;2023-07-22T14:07:41;26.40;54.20
4433;DHT22;2229;48.708;9.706;2023-07-22T14:10:10;26.60;53.70
4433;DHT22;2229;48.708;9.706;2023-07-22T14:12:37;26.70;53.40
4433;DHT22;2229;48.708;9.706;2023-07-22T14:15:06;26.80;53.20
4433;DHT22;2229;48.708;9.706;2023-07-22T14:17:33;26.90;53.40
4433;DHT22;2229;48.708;9.706;2023-07-22T14:20:04;27.00;53.30
4433;DHT22;2229;48.708;9.706;2023-07-22T14:22:32;27.20;52.90
4433;DHT22;2229;48.708;9.706;2023-07-22T14:25:00;27.40;52.50
4433;DHT22;2229;48.708;9.706;2023-07-22T14:27:29;27.40;51.60
4433;DHT22;2229;48.708;9.706;2023-07-22T14:29:56;27.40;51.70
4433;DHT22;2229;48.708;9.706;2023-07-22T14:32:23;27.40;52.00
4433;DHT22;2229;48.708;9.706;2023-07-22T14:34:50;27.40;51.80
4433;DHT22;2229;48.708;9.706;2023-07-22T14:37:18;27.40;51.60
4433;DHT22;2229;48.708;9.706;2023-07-22T14:39:45;27.30;52.10
4433;DHT22;2229;48.708;9.706;2023-07-22T14:42:13;27.20;51.80
4433;DHT22;2229;48.708;9.706;2023-07-22T14:44:42;27.10;51.50
4433;DHT22;2229;48.708;9.706;2023-07-22T14:47:10;26.90;51.30
4433;DHT22;2229;48.708;9.706;2023-07-22T14:49:38;26.80;51.30
4433;DHT22;2229;48.708;9.706;2023-07-22T14:52:06;26.70;51.70
4433;DHT22;2229;48.708;9.706;2023-07-22T14:54:33;26.60;51.90
4433;DHT22;2229;48.708;9.706;2023-07-22T14:57:01;26.70;52.10
4433;DHT22;2229;48.708;9.706;2023-07-22T14:59:28;26.80;51.70
4433;DHT22;2229;48.708;9.706;2023-07-22T15:01:57;27.00;51.30
4433;DHT22;2229;48.708;9.706;2023-07-22T15:04:25;27.10;51.00
4433;DHT22;2229;48.708;9.706;2023-07-22T15:06:52;27.30;51.00
4433;DHT22;2229;48.708;9.706;2023-07-22T15:09:19;27.30;50.90
4433;DHT22;2229;48.708;9.706;2023-07-22T15:11:47;27.50;51.00
4433;DHT22;2229;48.708;9.706;2023-07-22T15:14:14;27.60;50.70
4433;DHT22;2229;48.708;9.706;2023-07-22T15:16:41;27.80;50.40
4433;DHT22;2229;48.708;9.706;2023-07-22T15:19:10;27.90;49.80
4433;DHT22;2229;48.708;9.706;2023-07-22T15:21:38;28.00;49.40
4433;DHT22;2229;48.708;9.706;2023-07-22T15:24:05;28.00;48.70
4433;DHT22;2229;48.708;9.706;2023-07-22T15:26:33;28.00;48.50
4433;DHT22;2229;48.708;9.706;2023-07-22T15:29:00;28.00;47.50
4433;DHT22;2229;48.708;9.706;2023-07-22T15:31:27;27.90;47.20
4433;DHT22;2229;48.708;9.706;2023-07-22T15:33:55;27.80;47.60
4433;DHT22;2229;48.708;9.706;2023-07-22T15:36:26;27.70;48.10
4433;DHT22;2229;48.708;9.706;2023-07-22T15:38:53;27.50;48.40
4433;DHT22;2229;48.708;9.706;2023-07-22T15:41:22;27.30;48.70
4433;DHT22;2229;48.708;9.706;2023-07-22T15:43:50;27.20;49.10
4433;DHT22;2229;48.708;9.706;2023-07-22T15:46:18;27.00;49.10
4433;DHT22;2229;48.708;9.706;2023-07-22T15:48:45;26.90;49.10
4433;DHT22;2229;48.708;9.706;2023-07-22T15:51:12;26.80;49.20
4433;DHT22;2229;48.708;9.706;2023-07-22T15:53:41;26.80;49.30
4433;DHT22;2229;48.708;9.706;2023-07-22T15:56:09;26.70;49.10
4433;DHT22;2229;48.708;9.706;2023-07-22T15:58:37;26.60;49.40
4433;DHT22;2229;48.708;9.706;2023-07-22T16:01:04;26.60;49.80
4433;DHT22;2229;48.708;9.706;2023-07-22T16:03:31;26.70;50.40
4433;DHT22;2229;48.708;9.706;2023-07-22T16:05:58;26.80;50.10
4433;DHT22;2229;48.708;9.706;2023-07-22T16:08:25;26.70;50.20